createdAt,value
2019-03-18T00:03:05.677Z,42.70
2019-03-18T00:08:08.044Z,42.60
2019-03-18T00:13:10.497Z,42.70
2019-03-18T00:18:11.848Z,42.70
2019-03-18T00:23:13.171Z,42.80
2019-03-18T00:28:14.520Z,42.70
2019-03-18T00:33:15.857Z,42.70
2019-03-18T00:38:17.231Z,42.70
2019-03-18T00:43:18.562Z,42.80
2019-03-18T00:48:20.003Z,42.90
2019-03-18T00:53:21.328Z,42.80
2019-03-18T00:58:22.699Z,42.80
2019-03-18T01:03:24.026Z,42.70
2019-03-18T01:08:25.377Z,42.80
2019-03-18T01:13:26.852Z,42.90
2019-03-18T01:18:28.203Z,42.90
2019-03-18T01:23:29.525Z,42.80
2019-03-18T01:28:30.980Z,43.00
2019-03-18T01:33:32.303Z,42.90
2019-03-18T01:38:33.738Z,43.00
2019-03-18T01:43:36.381Z,42.90
2019-03-18T01:48:37.726Z,42.90
2019-03-18T01:53:39.042Z,42.70
2019-03-18T01:58:41.763Z,43.00
2019-03-18T02:03:43.115Z,42.90
2019-03-18T02:08:44.471Z,43.10
2019-03-18T02:13:46.632Z,43.00
2019-03-18T02:18:47.999Z,43.00
2019-03-18T02:23:49.322Z,43.00
2019-03-18T02:28:50.673Z,43.00
2019-03-18T02:33:52.020Z,43.00
2019-03-18T02:38:53.360Z,43.10
2019-03-18T02:43:54.707Z,43.10
2019-03-18T02:48:57.222Z,43.00
2019-03-18T02:53:58.551Z,42.90
2019-03-18T02:58:59.908Z,42.90
2019-03-18T03:04:01.372Z,42.90
2019-03-18T03:09:05.632Z,43.00
2019-03-18T03:14:06.969Z,43.00
2019-03-18T03:19:08.318Z,42.90
2019-03-18T03:24:09.844Z,43.00
2019-03-18T03:29:11.232Z,42.90
2019-03-18T03:34:14.184Z,42.90
2019-03-18T03:39:16.228Z,43.00
2019-03-18T03:44:17.669Z,42.90
2019-03-18T03:49:19.088Z,42.80
2019-03-18T03:54:20.458Z,43.00
2019-03-18T03:59:21.896Z,42.70
2019-03-18T04:04:23.482Z,42.90
2019-03-18T04:09:25.975Z,42.90
2019-03-18T04:14:27.317Z,43.00
2019-03-18T04:19:28.768Z,42.90
2019-03-18T04:24:30.099Z,42.90
2019-03-18T04:29:31.521Z,43.00
2019-03-18T04:34:32.842Z,43.00
2019-03-18T04:39:34.208Z,43.00
2019-03-18T04:44:35.527Z,43.10
2019-03-18T04:49:36.962Z,43.20
2019-03-18T04:54:38.299Z,43.10
2019-03-18T04:59:39.834Z,43.10
2019-03-18T05:04:41.133Z,43.50
2019-03-18T05:09:42.591Z,43.00
2019-03-18T05:14:44.327Z,43.20
2019-03-18T05:19:45.750Z,43.20
2019-03-18T05:24:47.114Z,43.20
2019-03-18T05:29:48.452Z,43.20
2019-03-18T05:34:49.831Z,43.30
2019-03-18T05:39:51.211Z,43.20
2019-03-18T05:44:52.538Z,43.30
2019-03-18T05:49:54.191Z,43.30
2019-03-18T05:54:55.609Z,43.20
2019-03-18T05:59:56.951Z,43.30
2019-03-18T06:04:58.325Z,43.40
2019-03-18T06:09:59.643Z,43.10
2019-03-18T06:15:07.032Z,43.10
2019-03-18T06:20:10.483Z,43.20
2019-03-18T06:25:11.828Z,43.20
2019-03-18T06:30:16.563Z,43.60
2019-03-18T06:35:20.396Z,43.20
2019-03-18T06:40:21.372Z,43.10
2019-03-18T06:45:22.755Z,43.10
2019-03-18T06:50:24.105Z,42.90
2019-03-18T06:55:25.599Z,43.00
2019-03-18T07:00:26.959Z,43.00
2019-03-18T07:05:28.341Z,43.10
2019-03-18T07:10:29.675Z,43.10
2019-03-18T07:15:31.011Z,43.10
2019-03-18T07:20:32.363Z,43.10
2019-03-18T07:25:33.828Z,42.90
2019-03-18T07:30:35.158Z,42.80
2019-03-18T07:35:36.588Z,42.80
2019-03-18T07:40:37.919Z,42.70
2019-03-18T07:45:39.375Z,42.50
2019-03-18T07:50:40.698Z,42.60
2019-03-18T07:55:42.054Z,42.50
2019-03-18T08:00:43.502Z,42.60
2019-03-18T08:05:44.915Z,42.80
2019-03-18T08:10:46.247Z,42.40
2019-03-18T08:15:47.683Z,42.50
2019-03-18T08:20:49.013Z,42.80
2019-03-18T08:25:50.652Z,42.90
2019-03-18T08:30:52.087Z,42.70
2019-03-18T08:35:53.399Z,42.60
2019-03-18T08:40:54.776Z,43.00
2019-03-18T08:45:56.130Z,42.90
2019-03-18T08:50:57.489Z,42.60
2019-03-18T08:55:58.847Z,42.70
2019-03-18T09:01:00.207Z,42.40
2019-03-18T09:06:01.550Z,42.40
2019-03-18T09:11:03.038Z,42.50
2019-03-18T09:16:04.457Z,42.40
2019-03-18T09:21:05.811Z,42.50
2019-03-18T09:26:07.126Z,42.40
2019-03-18T09:31:08.506Z,42.50
2019-03-18T09:36:10.707Z,42.50
2019-03-18T09:41:12.027Z,42.70
2019-03-18T09:46:14.378Z,42.50
2019-03-18T09:51:15.690Z,42.30
2019-03-18T09:56:17.041Z,42.20
2019-03-18T10:01:18.368Z,42.30
2019-03-18T10:06:19.727Z,42.50
2019-03-18T10:11:21.052Z,42.50
2019-03-18T10:16:22.399Z,42.30
2019-03-18T10:21:23.719Z,42.40
2019-03-18T10:26:25.104Z,42.20
2019-03-18T10:31:26.458Z,41.90
2019-03-18T10:36:27.955Z,41.90
2019-03-18T10:41:29.277Z,42.20
2019-03-18T10:46:30.655Z,42.10
2019-03-18T10:51:32.130Z,41.60
2019-03-18T10:56:33.524Z,41.80
2019-03-18T11:01:34.850Z,41.70
2019-03-18T11:06:36.181Z,41.90
2019-03-18T11:11:37.740Z,41.40
2019-03-18T11:16:39.060Z,41.40
2019-03-18T11:21:41.404Z,41.50
2019-03-18T11:26:42.726Z,41.50
2019-03-18T11:31:44.153Z,41.50
2019-03-18T11:36:45.474Z,41.40
2019-03-18T11:41:46.931Z,41.20
2019-03-18T11:46:48.267Z,41.30
2019-03-18T11:51:49.611Z,41.20
2019-03-18T11:56:51.130Z,41.40
2019-03-18T12:01:52.566Z,41.20
2019-03-18T12:06:53.924Z,41.40
2019-03-18T12:11:55.377Z,41.30
2019-03-18T12:16:56.706Z,41.30
2019-03-18T12:21:58.050Z,41.10
2019-03-18T12:26:59.429Z,40.90
2019-03-18T12:32:00.730Z,41.20
2019-03-18T12:37:02.058Z,40.90
2019-03-18T12:42:03.544Z,41.10
2019-03-18T12:47:05.993Z,40.90
2019-03-18T12:52:09.335Z,40.70
2019-03-18T12:57:10.755Z,40.80
2019-03-18T13:02:12.195Z,40.70
2019-03-18T13:07:13.640Z,40.90
2019-03-18T13:12:14.964Z,40.50
2019-03-18T13:17:16.313Z,40.70
2019-03-18T13:22:17.863Z,41.40
2019-03-18T13:27:20.273Z,39.90
2019-03-18T13:32:21.617Z,40.40
2019-03-18T13:37:22.950Z,40.30
2019-03-18T13:42:24.304Z,40.40
2019-03-18T13:47:25.625Z,40.30
2019-03-18T13:52:26.974Z,40.10
2019-03-18T13:57:28.304Z,40.20
2019-03-18T14:02:29.638Z,40.00
2019-03-18T14:07:30.962Z,40.10
2019-03-18T14:12:32.299Z,40.10
2019-03-18T14:17:33.756Z,40.20
2019-03-18T14:22:35.075Z,39.80
2019-03-18T14:27:37.344Z,40.10
2019-03-18T14:32:38.691Z,40.20
2019-03-18T14:37:40.032Z,40.00
2019-03-18T14:42:41.355Z,39.90
2019-03-18T14:47:42.698Z,39.70
2019-03-18T14:52:44.246Z,39.80
2019-03-18T14:57:45.691Z,39.70
2019-03-18T15:02:47.216Z,39.70
2019-03-18T15:07:48.598Z,39.70
2019-03-18T15:12:49.886Z,39.70
2019-03-18T15:17:51.236Z,39.80
2019-03-18T15:22:52.567Z,39.60
2019-03-18T15:27:53.911Z,39.50
2019-03-18T15:32:55.365Z,39.50
2019-03-18T15:37:56.701Z,39.60
2019-03-18T15:42:59.285Z,39.40
2019-03-18T15:48:00.732Z,39.60
2019-03-18T15:53:02.052Z,39.60
2019-03-18T15:58:03.465Z,39.60
2019-03-18T16:03:05.854Z,39.20
2019-03-18T16:08:07.282Z,39.40
2019-03-18T16:13:08.690Z,39.40
2019-03-18T16:18:10.252Z,40.00
2019-03-18T16:23:11.775Z,39.90
2019-03-18T16:28:13.271Z,40.30
2019-03-18T16:33:14.722Z,40.10
2019-03-18T16:38:16.188Z,40.30
2019-03-18T16:43:17.550Z,39.80
2019-03-18T16:48:18.964Z,40.00
2019-03-18T16:53:21.032Z,40.30
2019-03-18T16:58:22.629Z,40.10
2019-03-18T17:03:23.942Z,40.20
2019-03-18T17:08:25.317Z,40.40
2019-03-18T17:13:27.638Z,40.60
2019-03-18T17:18:28.976Z,40.40
2019-03-18T17:23:30.616Z,40.20
2019-03-18T17:28:31.936Z,40.10
2019-03-18T17:33:33.324Z,40.10
2019-03-18T17:38:34.630Z,40.30
2019-03-18T17:43:36.100Z,40.20
2019-03-18T17:48:37.450Z,40.20
2019-03-18T17:53:38.796Z,40.00
2019-03-18T17:58:40.164Z,40.20
2019-03-18T18:03:41.502Z,40.10
2019-03-18T18:08:42.839Z,40.10
2019-03-18T18:13:44.160Z,40.00
2019-03-18T18:18:45.516Z,39.90
2019-03-18T18:23:46.858Z,40.20
2019-03-18T18:28:48.210Z,40.50
2019-03-18T18:33:49.593Z,40.00
2019-03-18T18:38:50.940Z,40.00
2019-03-18T18:43:52.312Z,40.00
2019-03-18T18:48:54.682Z,39.90
2019-03-18T18:53:56.012Z,40.10
2019-03-18T18:58:57.366Z,40.00
2019-03-18T19:03:58.680Z,40.00
2019-03-18T19:09:00.033Z,40.00
2019-03-18T19:14:01.353Z,39.90
2019-03-18T19:19:04.067Z,40.40
2019-03-18T19:24:05.555Z,40.40
2019-03-18T19:29:07.017Z,40.30
2019-03-18T19:34:08.357Z,40.30
2019-03-18T19:39:09.702Z,40.30
2019-03-18T19:44:11.080Z,40.30
2019-03-18T19:49:12.409Z,40.60
2019-03-18T19:54:13.743Z,40.40
2019-03-18T19:59:15.128Z,40.40
2019-03-18T20:04:16.472Z,40.50
2019-03-18T20:09:18.007Z,40.50
2019-03-18T20:14:19.469Z,40.30
2019-03-18T20:19:20.804Z,40.40
2019-03-18T20:24:22.164Z,40.40
2019-03-18T20:29:23.508Z,40.40
2019-03-18T20:34:24.862Z,40.40
2019-03-18T20:39:26.204Z,40.30
2019-03-18T20:44:27.562Z,40.20
2019-03-18T20:49:28.882Z,40.20
2019-03-18T20:54:32.393Z,40.20
2019-03-18T20:59:34.671Z,40.10
2019-03-18T21:04:35.995Z,39.90
2019-03-18T21:09:37.339Z,39.80
2019-03-18T21:14:38.666Z,39.90
2019-03-18T21:19:40.011Z,39.70
2019-03-18T21:24:41.336Z,39.70
2019-03-18T21:29:42.680Z,39.50
2019-03-18T21:34:44.042Z,39.50
2019-03-18T21:39:45.355Z,39.50
2019-03-18T21:44:46.722Z,39.40
2019-03-18T21:49:48.090Z,39.50
2019-03-18T21:54:49.525Z,39.60
2019-03-18T21:59:51.910Z,39.50
2019-03-18T22:04:53.242Z,39.70
2019-03-18T22:09:54.595Z,39.50
2019-03-18T22:14:55.935Z,39.60
2019-03-18T22:19:57.303Z,39.70
2019-03-18T22:24:58.639Z,39.80
2019-03-18T22:30:00.005Z,39.80
2019-03-18T22:35:05.565Z,39.70
2019-03-18T22:40:16.687Z,39.80
2019-03-18T22:45:18.257Z,39.70
2019-03-18T22:50:19.959Z,40.00
2019-03-18T22:55:21.399Z,39.80
2019-03-18T23:00:27.510Z,40.40
2019-03-18T23:05:28.860Z,39.70
2019-03-18T23:10:31.053Z,39.70
2019-03-18T23:15:33.603Z,39.90
2019-03-18T23:20:34.931Z,40.00
2019-03-18T23:25:36.288Z,39.90
2019-03-18T23:30:37.614Z,40.00
2019-03-18T23:35:38.958Z,39.80
2019-03-18T23:40:40.436Z,40.00
2019-03-18T23:45:42.939Z,40.00
2019-03-18T23:50:45.405Z,39.90
2019-03-18T23:55:46.755Z,40.00
